sensor_id;sensor_type;location;lat;lon;timestamp;pressure;altitude;pressure_sealevel;temperature;humidity
43814;BME280;29669;55.706;37.656;2024-02-14T00:00:23;100974.09;;;-9.59;nan
43814;BME280;29669;55.706;37.656;2024-02-14T00:02:52;100973.22;;;-9.58;nan
43814;BME280;29669;55.706;37.656;2024-02-14T00:05:20;100976.59;;;-9.61;nan
43814;BME280;29669;55.706;37.656;2024-02-14T00:07:48;100972.41;;;-9.62;nan
43814;BME280;29669;55.706;37.656;2024-02-14T00:10:15;100981.63;;;-9.59;nan
43814;BME280;29669;55.706;37.656;2024-02-14T00:12:43;100974.91;;;-9.60;nan
43814;BME280;29669;55.706;37.656;2024-02-14T00:15:12;100976.59;;;-9.63;nan
43814;BME280;29669;55.706;37.656;2024-02-14T00:17:40;100979.97;;;-9.63;nan
43814;BME280;29669;55.706;37.656;2024-02-14T00:20:09;100979.16;;;-9.67;nan
43814;BME280;29669;55.706;37.656;2024-02-14T00:22:54;100982.50;;;-9.65;nan
43814;BME280;29669;55.706;37.656;2024-02-14T00:25:22;100974.94;;;-9.67;nan
43814;BME280;29669;55.706;37.656;2024-02-14T00:30:28;100977.50;;;-9.71;nan
43814;BME280;29669;55.706;37.656;2024-02-14T00:33:23;100979.16;;;-9.72;nan
43814;BME280;29669;55.706;37.656;2024-02-14T00:35:50;100985.00;;;-9.73;nan
43814;BME280;29669;55.706;37.656;2024-02-14T00:38:19;100980.03;;;-9.76;nan
43814;BME280;29669;55.706;37.656;2024-02-14T00:40:47;100988.41;;;-9.75;nan
43814;BME280;29669;55.706;37.656;2024-02-14T00:43:14;100990.06;;;-9.76;nan
43814;BME280;29669;55.706;37.656;2024-02-14T00:45:42;100985.03;;;-9.76;nan
43814;BME280;29669;55.706;37.656;2024-02-14T00:50:38;100991.78;;;-9.81;nan
43814;BME280;29669;55.706;37.656;2024-02-14T00:53:06;100990.94;;;-9.83;nan
43814;BME280;29669;55.706;37.656;2024-02-14T00:55:33;100989.25;;;-9.84;nan
43814;BME280;29669;55.706;37.656;2024-02-14T00:58:01;100988.41;;;-9.86;nan
43814;BME280;29669;55.706;37.656;2024-02-14T01:00:29;100984.25;;;-9.87;nan
43814;BME280;29669;55.706;37.656;2024-02-14T01:03:01;100989.31;;;-9.90;nan
43814;BME280;29669;55.706;37.656;2024-02-14T01:07:57;100990.97;;;-9.93;nan
43814;BME280;29669;55.706;37.656;2024-02-14T01:10:25;100997.69;;;-9.97;nan
43814;BME280;29669;55.706;37.656;2024-02-14T01:12:52;101003.53;;;-9.95;nan
43814;BME280;29669;55.706;37.656;2024-02-14T01:15:20;100998.53;;;-9.98;nan
43814;BME280;29669;55.706;37.656;2024-02-14T01:17:49;100996.88;;;-10.02;nan
43814;BME280;29669;55.706;37.656;2024-02-14T01:20:17;101002.75;;;-10.01;nan
43814;BME280;29669;55.706;37.656;2024-02-14T01:22:45;101004.41;;;-10.02;nan
43814;BME280;29669;55.706;37.656;2024-02-14T01:25:28;101005.22;;;-10.03;nan
43814;BME280;29669;55.706;37.656;2024-02-14T01:27:56;101001.91;;;-10.08;nan
43814;BME280;29669;55.706;37.656;2024-02-14T01:30:24;101008.63;;;-10.10;nan
43814;BME280;29669;55.706;37.656;2024-02-14T01:40:15;101012.88;;;-10.16;nan
43814;BME280;29669;55.706;37.656;2024-02-14T01:45:30;101022.91;;;-10.19;nan
43814;BME280;29669;55.706;37.656;2024-02-14T01:48:14;101015.38;;;-10.21;nan
43814;BME280;29669;55.706;37.656;2024-02-14T01:50:46;101024.56;;;-10.23;nan
43814;BME280;29669;55.706;37.656;2024-02-14T01:53:14;101018.72;;;-10.31;nan
43814;BME280;29669;55.706;37.656;2024-02-14T01:55:43;101031.28;;;-10.31;nan
43814;BME280;29669;55.706;37.656;2024-02-14T01:58:13;101032.13;;;-10.35;nan
43814;BME280;29669;55.706;37.656;2024-02-14T02:00:41;101027.97;;;-10.39;nan
43814;BME280;29669;55.706;37.656;2024-02-14T02:03:13;101036.34;;;-10.41;nan
43814;BME280;29669;55.706;37.656;2024-02-14T02:05:42;101033.81;;;-10.46;nan
43814;BME280;29669;55.706;37.656;2024-02-14T02:08:10;101049.72;;;-10.45;nan
43814;BME280;29669;55.706;37.656;2024-02-14T02:10:38;101041.34;;;-10.47;nan
43814;BME280;29669;55.706;37.656;2024-02-14T02:13:28;101053.91;;;-10.49;nan
43814;BME280;29669;55.706;37.656;2024-02-14T02:16:16;101047.19;;;-10.51;nan
43814;BME280;29669;55.706;37.656;2024-02-14T02:19:03;101047.22;;;-10.53;nan
43814;BME280;29669;55.706;37.656;2024-02-14T02:21:55;101058.06;;;-10.55;nan
43814;BME280;29669;55.706;37.656;2024-02-14T02:24:23;101054.72;;;-10.59;nan
43814;BME280;29669;55.706;37.656;2024-02-14T02:26:51;101053.91;;;-10.61;nan
43814;BME280;29669;55.706;37.656;2024-02-14T02:29:39;101058.09;;;-10.60;nan
43814;BME280;29669;55.706;37.656;2024-02-14T02:32:07;101057.25;;;-10.60;nan
43814;BME280;29669;55.706;37.656;2024-02-14T02:34:37;101056.41;;;-10.61;nan
43814;BME280;29669;55.706;37.656;2024-02-14T02:37:07;101054.75;;;-10.63;nan
43814;BME280;29669;55.706;37.656;2024-02-14T02:40:09;101056.41;;;-10.66;nan
43814;BME280;29669;55.706;37.656;2024-02-14T02:43:00;101053.91;;;-10.70;nan
43814;BME280;29669;55.706;37.656;2024-02-14T02:45:48;101057.25;;;-10.71;nan
43814;BME280;29669;55.706;37.656;2024-02-14T02:51:17;101060.59;;;-10.75;nan
43814;BME280;29669;55.706;37.656;2024-02-14T02:54:07;101070.63;;;-10.75;nan
43814;BME280;29669;55.706;37.656;2024-02-14T02:56:56;101067.25;;;-10.80;nan
43814;BME280;29669;55.706;37.656;2024-02-14T02:59:23;101072.28;;;-10.83;nan
43814;BME280;29669;55.706;37.656;2024-02-14T03:01:51;101065.59;;;-10.81;nan
43814;BME280;29669;55.706;37.656;2024-02-14T03:04:39;101075.63;;;-10.83;nan
43814;BME280;29669;55.706;37.656;2024-02-14T03:07:35;101074.78;;;-10.83;nan
43814;BME280;29669;55.706;37.656;2024-02-14T03:10:22;101078.97;;;-10.85;nan
43814;BME280;29669;55.706;37.656;2024-02-14T03:13:10;101077.31;;;-10.83;nan
43814;BME280;29669;55.706;37.656;2024-02-14T03:16:00;101080.66;;;-10.81;nan
43814;BME280;29669;55.706;37.656;2024-02-14T03:18:28;101090.69;;;-10.81;nan
43814;BME280;29669;55.706;37.656;2024-02-14T03:20:56;101083.97;;;-10.84;nan
43814;BME280;29669;55.706;37.656;2024-02-14T03:23:23;101086.50;;;-10.84;nan
43814;BME280;29669;55.706;37.656;2024-02-14T03:25:51;101089.84;;;-10.83;nan
43814;BME280;29669;55.706;37.656;2024-02-14T03:28:19;101094.00;;;-10.85;nan
43814;BME280;29669;55.706;37.656;2024-02-14T03:30:47;101089.00;;;-10.88;nan
43814;BME280;29669;55.706;37.656;2024-02-14T03:33:15;101090.66;;;-10.93;nan
43814;BME280;29669;55.706;37.656;2024-02-14T03:35:43;101100.69;;;-10.93;nan
43814;BME280;29669;55.706;37.656;2024-02-14T03:38:11;101091.47;;;-10.97;nan
43814;BME280;29669;55.706;37.656;2024-02-14T03:40:38;101092.31;;;-10.98;nan
43814;BME280;29669;55.706;37.656;2024-02-14T03:43:09;101099.03;;;-10.94;nan
43814;BME280;29669;55.706;37.656;2024-02-14T03:45:39;101110.72;;;-10.93;nan
43814;BME280;29669;55.706;37.656;2024-02-14T03:48:07;101108.19;;;-10.93;nan
43814;BME280;29669;55.706;37.656;2024-02-14T03:50:35;101104.03;;;-10.91;nan
43814;BME280;29669;55.706;37.656;2024-02-14T03:53:03;101109.91;;;-10.92;nan
43814;BME280;29669;55.706;37.656;2024-02-14T03:55:31;101115.72;;;-10.93;nan
43814;BME280;29669;55.706;37.656;2024-02-14T03:57:59;101118.25;;;-10.98;nan
43814;BME280;29669;55.706;37.656;2024-02-14T04:00:26;101111.53;;;-10.97;nan
43814;BME280;29669;55.706;37.656;2024-02-14T04:02:54;101111.53;;;-11.00;nan
43814;BME280;29669;55.706;37.656;2024-02-14T04:05:26;101113.19;;;-11.02;nan
43814;BME280;29669;55.706;37.656;2024-02-14T04:07:57;101114.84;;;-11.09;nan
43814;BME280;29669;55.706;37.656;2024-02-14T04:10:25;101119.84;;;-11.10;nan
43814;BME280;29669;55.706;37.656;2024-02-14T04:12:53;101116.53;;;-11.11;nan
43814;BME280;29669;55.706;37.656;2024-02-14T04:15:21;101114.84;;;-11.10;nan
43814;BME280;29669;55.706;37.656;2024-02-14T04:18:03;101119.00;;;-11.12;nan
43814;BME280;29669;55.706;37.656;2024-02-14T04:20:34;101124.84;;;-11.16;nan
43814;BME280;29669;55.706;37.656;2024-02-14T04:23:03;101128.19;;;-11.20;nan
43814;BME280;29669;55.706;37.656;2024-02-14T04:25:36;101119.81;;;-11.24;nan
43814;BME280;29669;55.706;37.656;2024-02-14T04:28:05;101123.16;;;-11.26;nan
43814;BME280;29669;55.706;37.656;2024-02-14T04:30:32;101130.69;;;-11.26;nan
43814;BME280;29669;55.706;37.656;2024-02-14T04:33:21;101141.56;;;-11.26;nan
43814;BME280;29669;55.706;37.656;2024-02-14T04:35:49;101134.00;;;-11.30;nan
43814;BME280;29669;55.706;37.656;2024-02-14T04:38:17;101136.47;;;-11.33;nan
43814;BME280;29669;55.706;37.656;2024-02-14T04:40:47;101146.50;;;-11.33;nan
43814;BME280;29669;55.706;37.656;2024-02-14T04:43:15;101147.34;;;-11.31;nan
43814;BME280;29669;55.706;37.656;2024-02-14T04:45:44;101152.38;;;-11.30;nan
43814;BME280;29669;55.706;37.656;2024-02-14T04:48:16;101149.84;;;-11.31;nan
43814;BME280;29669;55.706;37.656;2024-02-14T04:50:44;101154.88;;;-11.33;nan
43814;BME280;29669;55.706;37.656;2024-02-14T04:53:12;101154.03;;;-11.33;nan
43814;BME280;29669;55.706;37.656;2024-02-14T04:55:39;101163.22;;;-11.32;nan
43814;BME280;29669;55.706;37.656;2024-02-14T04:58:07;101164.88;;;-11.33;nan
43814;BME280;29669;55.706;37.656;2024-02-14T05:00:35;101169.06;;;-11.33;nan
43814;BME280;29669;55.706;37.656;2024-02-14T05:03:03;101172.41;;;-11.34;nan
43814;BME280;29669;55.706;37.656;2024-02-14T05:05:31;101165.72;;;-11.35;nan
43814;BME280;29669;55.706;37.656;2024-02-14T05:08:03;101165.69;;;-11.38;nan
43814;BME280;29669;55.706;37.656;2024-02-14T05:10:31;101177.41;;;-11.36;nan
43814;BME280;29669;55.706;37.656;2024-02-14T05:12:59;101177.41;;;-11.34;nan
43814;BME280;29669;55.706;37.656;2024-02-14T05:15:29;101175.75;;;-11.29;nan
43814;BME280;29669;55.706;37.656;2024-02-14T05:17:56;101179.09;;;-11.27;nan
43814;BME280;29669;55.706;37.656;2024-02-14T05:20:24;101183.31;;;-11.23;nan
43814;BME280;29669;55.706;37.656;2024-02-14T05:22:52;101176.63;;;-11.21;nan
43814;BME280;29669;55.706;37.656;2024-02-14T05:25:21;101174.16;;;-11.18;nan
43814;BME280;29669;55.706;37.656;2024-02-14T05:28:00;101185.03;;;-11.12;nan
43814;BME280;29669;55.706;37.656;2024-02-14T05:30:29;101187.56;;;-11.07;nan
43814;BME280;29669;55.706;37.656;2024-02-14T05:33:16;101190.91;;;-11.02;nan
43814;BME280;29669;55.706;37.656;2024-02-14T05:35:51;101190.94;;;-10.96;nan
43814;BME280;29669;55.706;37.656;2024-02-14T05:38:19;101193.44;;;-10.95;nan
43814;BME280;29669;55.706;37.656;2024-02-14T05:40:50;101193.47;;;-10.90;nan
43814;BME280;29669;55.706;37.656;2024-02-14T05:43:18;101195.16;;;-10.83;nan
43814;BME280;29669;55.706;37.656;2024-02-14T05:45:46;101204.34;;;-10.76;nan
43814;BME280;29669;55.706;37.656;2024-02-14T05:48:14;101201.03;;;-10.72;nan
43814;BME280;29669;55.706;37.656;2024-02-14T05:50:42;101202.72;;;-10.65;nan
43814;BME280;29669;55.706;37.656;2024-02-14T05:53:10;101203.56;;;-10.63;nan
43814;BME280;29669;55.706;37.656;2024-02-14T05:55:39;101203.56;;;-10.55;nan
43814;BME280;29669;55.706;37.656;2024-02-14T05:58:07;101196.91;;;-10.49;nan
43814;BME280;29669;55.706;37.656;2024-02-14T06:00:35;101203.59;;;-10.43;nan
43814;BME280;29669;55.706;37.656;2024-02-14T06:03:04;101216.97;;;-10.37;nan
43814;BME280;29669;55.706;37.656;2024-02-14T06:05:35;101213.66;;;-10.28;nan
43814;BME280;29669;55.706;37.656;2024-02-14T06:08:03;101215.34;;;-10.18;nan
43814;BME280;29669;55.706;37.656;2024-02-14T06:10:31;101217.00;;;-10.11;nan
43814;BME280;29669;55.706;37.656;2024-02-14T06:12:59;101222.00;;;-10.05;nan
43814;BME280;29669;55.706;37.656;2024-02-14T06:15:27;101222.00;;;-10.05;nan
43814;BME280;29669;55.706;37.656;2024-02-14T06:17:55;101220.31;;;-10.00;nan
43814;BME280;29669;55.706;37.656;2024-02-14T06:20:23;101211.09;;;-9.95;nan
43814;BME280;29669;55.706;37.656;2024-02-14T06:22:51;101218.66;;;-9.89;nan
43814;BME280;29669;55.706;37.656;2024-02-14T06:25:27;101221.16;;;-9.82;nan
43814;BME280;29669;55.706;37.656;2024-02-14T06:28:11;101217.81;;;-9.75;nan
43814;BME280;29669;55.706;37.656;2024-02-14T06:30:38;101221.16;;;-9.63;nan
43814;BME280;29669;55.706;37.656;2024-02-14T06:33:06;101210.22;;;-9.50;nan
43814;BME280;29669;55.706;37.656;2024-02-14T06:50:52;101230.03;;;-8.61;nan
43814;BME280;29669;55.706;37.656;2024-02-14T06:53:20;101224.09;;;-8.50;nan
43814;BME280;29669;55.706;37.656;2024-02-14T06:55:48;101212.25;;;-8.39;nan
43814;BME280;29669;55.706;37.656;2024-02-14T06:58:16;101223.06;;;-8.26;nan
43814;BME280;29669;55.706;37.656;2024-02-14T07:00:44;101222.97;;;-8.13;nan
43814;BME280;29669;55.706;37.656;2024-02-14T07:03:12;101220.41;;;-8.07;nan
43814;BME280;29669;55.706;37.656;2024-02-14T07:05:39;101217.06;;;-8.12;nan
43814;BME280;29669;55.706;37.656;2024-02-14T07:08:07;101212.78;;;-8.01;nan
43814;BME280;29669;55.706;37.656;2024-02-14T07:10:35;101222.72;;;-7.84;nan
43814;BME280;29669;55.706;37.656;2024-02-14T07:13:03;101221.81;;;-7.74;nan
43814;BME280;29669;55.706;37.656;2024-02-14T07:15:31;101219.22;;;-7.66;nan
43814;BME280;29669;55.706;37.656;2024-02-14T07:17:59;101224.16;;;-7.57;nan
43814;BME280;29669;55.706;37.656;2024-02-14T07:20:27;101219.91;;;-7.49;nan
43814;BME280;29669;55.706;37.656;2024-02-14T07:22:56;101222.44;;;-7.52;nan
43814;BME280;29669;55.706;37.656;2024-02-14T07:25:25;101221.53;;;-7.47;nan
43814;BME280;29669;55.706;37.656;2024-02-14T07:27:53;101223.25;;;-7.50;nan
43814;BME280;29669;55.706;37.656;2024-02-14T07:30:21;101224.00;;;-7.41;nan
43814;BME280;29669;55.706;37.656;2024-02-14T07:32:48;101229.84;;;-7.37;nan
43814;BME280;29669;55.706;37.656;2024-02-14T07:37:46;101228.13;;;-7.35;nan
43814;BME280;29669;55.706;37.656;2024-02-14T07:40:13;101227.38;;;-7.40;nan
43814;BME280;29669;55.706;37.656;2024-02-14T07:43:03;101229.03;;;-7.41;nan
43814;BME280;29669;55.706;37.656;2024-02-14T07:45:31;101234.06;;;-7.39;nan
43814;BME280;29669;55.706;37.656;2024-02-14T07:47:59;101221.34;;;-7.30;nan
43814;BME280;29669;55.706;37.656;2024-02-14T07:50:27;101225.53;;;-7.25;nan
43814;BME280;29669;55.706;37.656;2024-02-14T07:52:56;101231.31;;;-7.18;nan
43814;BME280;29669;55.706;37.656;2024-02-14T07:55:23;101234.50;;;-7.01;nan
43814;BME280;29669;55.706;37.656;2024-02-14T07:57:51;101232.56;;;-6.81;nan
43814;BME280;29669;55.706;37.656;2024-02-14T08:00:20;101229.13;;;-6.74;nan
43814;BME280;29669;55.706;37.656;2024-02-14T08:02:51;101231.59;;;-6.71;nan
43814;BME280;29669;55.706;37.656;2024-02-14T08:05:19;101228.13;;;-6.64;nan
43814;BME280;29669;55.706;37.656;2024-02-14T08:07:47;101235.50;;;-6.49;nan
43814;BME280;29669;55.706;37.656;2024-02-14T08:10:15;101226.97;;;-6.40;nan
43814;BME280;29669;55.706;37.656;2024-02-14T08:12:44;101235.34;;;-6.37;nan
43814;BME280;29669;55.706;37.656;2024-02-14T08:15:12;101236.09;;;-6.32;nan
43814;BME280;29669;55.706;37.656;2024-02-14T08:17:40;101239.41;;;-6.27;nan
43814;BME280;29669;55.706;37.656;2024-02-14T08:20:12;101240.31;;;-6.31;nan
43814;BME280;29669;55.706;37.656;2024-02-14T08:22:54;101233.63;;;-6.35;nan
43814;BME280;29669;55.706;37.656;2024-02-14T08:25:22;101241.03;;;-6.24;nan
43814;BME280;29669;55.706;37.656;2024-02-14T08:27:49;101239.22;;;-6.13;nan
43814;BME280;29669;55.706;37.656;2024-02-14T08:30:18;101249.31;;;-6.12;nan
43814;BME280;29669;55.706;37.656;2024-02-14T08:32:47;101240.94;;;-6.15;nan
43814;BME280;29669;55.706;37.656;2024-02-14T08:35:15;101245.28;;;-6.25;nan
43814;BME280;29669;55.706;37.656;2024-02-14T15:25:42;101327.78;;;-7.92;71.82
43814;BME280;29669;55.706;37.656;2024-02-14T15:28:10;101319.09;;;-7.53;72.29
43814;BME280;29669;55.706;37.656;2024-02-14T15:30:49;101322.91;;;-7.13;71.80
43814;BME280;29669;55.706;37.656;2024-02-14T15:33:35;101319.28;;;-6.87;71.08
43814;BME280;29669;55.706;37.656;2024-02-14T15:36:04;101328.31;;;-6.66;70.67
43814;BME280;29669;55.706;37.656;2024-02-14T15:38:32;101320.50;;;-6.46;70.38
43814;BME280;29669;55.706;37.656;2024-02-14T15:41:00;101328.69;;;-6.29;70.18
43814;BME280;29669;55.706;37.656;2024-02-14T15:43:31;101326.03;;;-6.17;69.81
43814;BME280;29669;55.706;37.656;2024-02-14T15:46:01;101334.31;;;-6.09;69.63
43814;BME280;29669;55.706;37.656;2024-02-14T15:48:29;101323.31;;;-6.05;69.67
43814;BME280;29669;55.706;37.656;2024-02-14T15:50:58;101330.78;;;-5.98;69.41
43814;BME280;29669;55.706;37.656;2024-02-14T15:53:26;101338.25;;;-5.90;69.29
43814;BME280;29669;55.706;37.656;2024-02-14T15:55:54;101339.91;;;-5.86;69.25
43814;BME280;29669;55.706;37.656;2024-02-14T15:58:23;101339.06;;;-5.85;69.18
43814;BME280;29669;55.706;37.656;2024-02-14T16:00:53;101344.09;;;-5.87;69.22
43814;BME280;29669;55.706;37.656;2024-02-14T16:03:23;101344.91;;;-5.85;69.15
43814;BME280;29669;55.706;37.656;2024-02-14T16:05:50;101338.13;;;-5.81;69.16
43814;BME280;29669;55.706;37.656;2024-02-14T16:13:15;101345.84;;;-5.89;nan
43814;BME280;29669;55.706;37.656;2024-02-14T16:15:44;101348.34;;;-5.87;nan
43814;BME280;29669;55.706;37.656;2024-02-14T16:20:40;101355.81;;;-5.81;nan
43814;BME280;29669;55.706;37.656;2024-02-14T16:23:08;101364.25;;;-5.82;nan
43814;BME280;29669;55.706;37.656;2024-02-14T16:25:35;101368.34;;;-5.75;nan
43814;BME280;29669;55.706;37.656;2024-02-14T16:28:08;101360.03;;;-5.82;nan
43814;BME280;29669;55.706;37.656;2024-02-14T16:30:35;101357.59;;;-5.86;nan
43814;BME280;29669;55.706;37.656;2024-02-14T16:33:04;101361.03;;;-5.89;nan
43814;BME280;29669;55.706;37.656;2024-02-14T16:35:33;101362.72;;;-5.91;nan
43814;BME280;29669;55.706;37.656;2024-02-14T16:38:01;101365.38;;;-6.01;nan
43814;BME280;29669;55.706;37.656;2024-02-14T16:40:30;101355.34;;;-6.06;nan
43814;BME280;29669;55.706;37.656;2024-02-14T16:43:00;101377.22;;;-6.05;nan
43814;BME280;29669;55.706;37.656;2024-02-14T16:45:28;101369.53;;;-5.97;nan
43814;BME280;29669;55.706;37.656;2024-02-14T16:47:56;101368.00;;;-6.06;nan
43814;BME280;29669;55.706;37.656;2024-02-14T16:50:24;101369.72;;;-6.11;nan
43814;BME280;29669;55.706;37.656;2024-02-14T16:52:52;101374.84;;;-6.17;nan
43814;BME280;29669;55.706;37.656;2024-02-14T16:55:20;101372.38;;;-6.20;nan
43814;BME280;29669;55.706;37.656;2024-02-14T16:57:48;101367.34;;;-6.21;nan
43814;BME280;29669;55.706;37.656;2024-02-14T17:00:16;101376.66;;;-6.25;nan
43814;BME280;29669;55.706;37.656;2024-02-14T17:02:45;101378.31;;;-6.24;nan
43814;BME280;29669;55.706;37.656;2024-02-14T17:05:13;101381.66;;;-6.22;nan
43814;BME280;29669;55.706;37.656;2024-02-14T17:07:41;101377.56;;;-6.30;nan
43814;BME280;29669;55.706;37.656;2024-02-14T17:10:09;101380.91;;;-6.27;nan
43814;BME280;29669;55.706;37.656;2024-02-14T17:12:37;101394.28;;;-6.22;nan
43814;BME280;29669;55.706;37.656;2024-02-14T17:15:05;101390.13;;;-6.23;nan
43814;BME280;29669;55.706;37.656;2024-02-14T17:17:33;101390.97;;;-6.25;nan
43814;BME280;29669;55.706;37.656;2024-02-14T17:20:02;101386.03;;;-6.34;nan
43814;BME280;29669;55.706;37.656;2024-02-14T17:22:30;101387.75;;;-6.39;nan
43814;BME280;29669;55.706;37.656;2024-02-14T17:24:59;101384.44;;;-6.43;nan
43814;BME280;29669;55.706;37.656;2024-02-14T17:27:27;101384.47;;;-6.44;nan
43814;BME280;29669;55.706;37.656;2024-02-14T17:29:54;101383.56;;;-6.39;nan
43814;BME280;29669;55.706;37.656;2024-02-14T17:32:22;101386.94;;;-6.40;nan
43814;BME280;29669;55.706;37.656;2024-02-14T17:34:58;101382.75;;;-6.42;nan
43814;BME280;29669;55.706;37.656;2024-02-14T17:37:27;101392.00;;;-6.43;nan
43814;BME280;29669;55.706;37.656;2024-02-14T17:39:54;101381.06;;;-6.42;nan
43814;BME280;29669;55.706;37.656;2024-02-14T17:42:23;101389.50;;;-6.43;nan
43814;BME280;29669;55.706;37.656;2024-02-14T17:44:51;101390.31;;;-6.41;nan
43814;BME280;29669;55.706;37.656;2024-02-14T17:47:18;101391.19;;;-6.43;nan
43814;BME280;29669;55.706;37.656;2024-02-14T17:49:46;101381.16;;;-6.49;nan
43814;BME280;29669;55.706;37.656;2024-02-14T17:52:15;101386.22;;;-6.52;nan
43814;BME280;29669;55.706;37.656;2024-02-14T17:54:47;101387.13;;;-6.58;nan
43814;BME280;29669;55.706;37.656;2024-02-14T17:57:15;101395.53;;;-6.56;nan
43814;BME280;29669;55.706;37.656;2024-02-14T17:59:44;101389.63;;;-6.56;nan
43814;BME280;29669;55.706;37.656;2024-02-14T18:02:13;101383.78;;;-6.57;nan
43814;BME280;29669;55.706;37.656;2024-02-14T18:04:40;101392.19;;;-6.58;nan
43814;BME280;29669;55.706;37.656;2024-02-14T18:07:08;101392.16;;;-6.56;nan
43814;BME280;29669;55.706;37.656;2024-02-14T18:09:37;101385.53;;;-6.65;nan
43814;BME280;29669;55.706;37.656;2024-02-14T18:12:05;101384.75;;;-6.70;nan
43814;BME280;29669;55.706;37.656;2024-02-14T18:14:33;101396.53;;;-6.70;nan
43814;BME280;29669;55.706;37.656;2024-02-14T18:17:01;101395.72;;;-6.72;nan
43814;BME280;29669;55.706;37.656;2024-02-14T18:19:29;101387.31;;;-6.75;nan
43814;BME280;29669;55.706;37.656;2024-02-14T18:21:57;101383.94;;;-6.72;nan
43814;BME280;29669;55.706;37.656;2024-02-14T18:24:24;101390.63;;;-6.68;nan
43814;BME280;29669;55.706;37.656;2024-02-14T18:26:52;101400.72;;;-6.68;nan
43814;BME280;29669;55.706;37.656;2024-02-14T18:29:20;101394.03;;;-6.74;nan
43814;BME280;29669;55.706;37.656;2024-02-14T18:31:47;101395.69;;;-6.71;nan
43814;BME280;29669;55.706;37.656;2024-02-14T18:34:15;101390.69;;;-6.77;nan
43814;BME280;29669;55.706;37.656;2024-02-14T18:36:43;101397.53;;;-6.85;nan
43814;BME280;29669;55.706;37.656;2024-02-14T18:39:11;101395.00;;;-6.87;nan
43814;BME280;29669;55.706;37.656;2024-02-14T18:41:41;101398.34;;;-6.85;nan
43814;BME280;29669;55.706;37.656;2024-02-14T18:44:08;101394.19;;;-6.87;nan
43814;BME280;29669;55.706;37.656;2024-02-14T18:46:36;101391.66;;;-6.87;nan
43814;BME280;29669;55.706;37.656;2024-02-14T18:49:10;101410.19;;;-6.90;nan
43814;BME280;29669;55.706;37.656;2024-02-14T18:51:38;101395.03;;;-6.88;nan
43814;BME280;29669;55.706;37.656;2024-02-14T18:54:08;101394.13;;;-6.83;nan
43814;BME280;29669;55.706;37.656;2024-02-14T18:56:36;101397.53;;;-6.87;nan
43814;BME280;29669;55.706;37.656;2024-02-14T18:59:06;101400.00;;;-6.82;nan
43814;BME280;29669;55.706;37.656;2024-02-14T19:01:35;101385.66;;;-6.77;nan
43814;BME280;29669;55.706;37.656;2024-02-14T19:04:03;101394.03;;;-6.75;nan
43814;BME280;29669;55.706;37.656;2024-02-14T19:06:32;101389.06;;;-6.81;nan
43814;BME280;29669;55.706;37.656;2024-02-14T19:09:02;101396.66;;;-6.83;nan
43814;BME280;29669;55.706;37.656;2024-02-14T19:11:31;101398.31;;;-6.80;nan
43814;BME280;29669;55.706;37.656;2024-02-14T19:13:58;101380.66;;;-6.80;nan
43814;BME280;29669;55.706;37.656;2024-02-14T19:16:26;101381.50;;;-6.83;nan
43814;BME280;29669;55.706;37.656;2024-02-14T19:18:55;101396.75;;;-6.93;nan
43814;BME280;29669;55.706;37.656;2024-02-14T19:21:24;101375.78;;;-7.00;nan
43814;BME280;29669;55.706;37.656;2024-02-14T19:23:52;101386.72;;;-6.99;nan
43814;BME280;29669;55.706;37.656;2024-02-14T19:26:19;101385.84;;;-6.98;nan
43814;BME280;29669;55.706;37.656;2024-02-14T19:28:48;101382.50;;;-6.99;nan
43814;BME280;29669;55.706;37.656;2024-02-14T19:31:16;101380.81;;;-7.00;nan
43814;BME280;29669;55.706;37.656;2024-02-14T19:33:44;101382.50;;;-6.97;nan
43814;BME280;29669;55.706;37.656;2024-02-14T19:36:13;101387.63;;;-7.06;nan
43814;BME280;29669;55.706;37.656;2024-02-14T19:38:41;101389.34;;;-7.11;nan
43814;BME280;29669;55.706;37.656;2024-02-14T19:41:09;101391.81;;;-7.02;nan
43814;BME280;29669;55.706;37.656;2024-02-14T19:43:37;101379.94;;;-6.96;nan
43814;BME280;29669;55.706;37.656;2024-02-14T19:46:08;101390.09;;;-7.02;nan
43814;BME280;29669;55.706;37.656;2024-02-14T19:48:38;101382.59;;;-7.06;nan
43814;BME280;29669;55.706;37.656;2024-02-14T19:51:06;101383.38;;;-7.03;nan
43814;BME280;29669;55.706;37.656;2024-02-14T19:53:34;101390.16;;;-7.06;nan
43814;BME280;29669;55.706;37.656;2024-02-14T19:56:03;101389.25;;;-6.99;nan
43814;BME280;29669;55.706;37.656;2024-02-14T19:58:31;101392.56;;;-6.93;nan
43814;BME280;29669;55.706;37.656;2024-02-14T20:00:59;101386.69;;;-6.95;nan
43814;BME280;29669;55.706;37.656;2024-02-14T20:03:26;101395.06;;;-6.94;nan
43814;BME280;29669;55.706;37.656;2024-02-14T20:05:54;101395.97;;;-6.97;nan
43814;BME280;29669;55.706;37.656;2024-02-14T20:08:22;101395.94;;;-6.98;nan
43814;BME280;29669;55.706;37.656;2024-02-14T20:10:53;101395.97;;;-7.01;nan
43814;BME280;29669;55.706;37.656;2024-02-14T20:13:23;101394.38;;;-7.08;nan
43814;BME280;29669;55.706;37.656;2024-02-14T20:15:51;101397.72;;;-7.06;nan
43814;BME280;29669;55.706;37.656;2024-02-14T20:18:21;101394.31;;;-7.04;nan
43814;BME280;29669;55.706;37.656;2024-02-14T20:20:49;101396.91;;;-7.08;nan
43814;BME280;29669;55.706;37.656;2024-02-14T20:23:17;101392.72;;;-7.12;nan
43814;BME280;29669;55.706;37.656;2024-02-14T20:25:45;101382.63;;;-7.15;nan
43814;BME280;29669;55.706;37.656;2024-02-14T20:28:13;101394.47;;;-7.20;nan
43814;BME280;29669;55.706;37.656;2024-02-14T20:30:41;101393.69;;;-7.30;nan
43814;BME280;29669;55.706;37.656;2024-02-14T20:33:10;101397.91;;;-7.27;nan
43814;BME280;29669;55.706;37.656;2024-02-14T20:35:38;101393.72;;;-7.31;nan
43814;BME280;29669;55.706;37.656;2024-02-14T20:38:06;101397.91;;;-7.30;nan
43814;BME280;29669;55.706;37.656;2024-02-14T20:40:37;101396.28;;;-7.34;nan
43814;BME280;29669;55.706;37.656;2024-02-14T20:43:05;101404.72;;;-7.38;nan